sensor_id;sensor_type;location;lat;lon;timestamp;temperature;humidity
75296;DHT22;64623;44.738;37.804;2024-02-15T00:00:45;12.15;118.99
75296;DHT22;64623;44.738;37.804;2024-02-15T00:01:49;12.11;118.99
75296;DHT22;64623;44.738;37.804;2024-02-15T00:02:52;12.11;118.99
75296;DHT22;64623;44.738;37.804;2024-02-15T00:03:55;12.08;118.99
75296;DHT22;64623;44.738;37.804;2024-02-15T00:04:58;12.07;118.99
75296;DHT22;64623;44.738;37.804;2024-02-15T00:06:02;12.05;118.99
75296;DHT22;64623;44.738;37.804;2024-02-15T00:07:05;12.01;118.99
75296;DHT22;64623;44.738;37.804;2024-02-15T00:08:09;11.99;118.99
75296;DHT22;64623;44.738;37.804;2024-02-15T00:09:12;11.99;118.99
75296;DHT22;64623;44.738;37.804;2024-02-15T00:10:15;11.96;118.99
75296;DHT22;64623;44.738;37.804;2024-02-15T00:11:19;11.96;118.99
75296;DHT22;64623;44.738;37.804;2024-02-15T00:12:22;11.93;118.99
75296;DHT22;64623;44.738;37.804;2024-02-15T00:13:25;11.94;118.99
75296;DHT22;64623;44.738;37.804;2024-02-15T00:14:28;11.90;118.99
75296;DHT22;64623;44.738;37.804;2024-02-15T00:15:32;11.89;118.99
75296;DHT22;64623;44.738;37.804;2024-02-15T00:16:37;11.89;118.99
75296;DHT22;64623;44.738;37.804;2024-02-15T00:17:40;11.91;118.99
75296;DHT22;64623;44.738;37.804;2024-02-15T00:18:44;11.91;118.99
75296;DHT22;64623;44.738;37.804;2024-02-15T00:19:47;11.87;118.99
75296;DHT22;64623;44.738;37.804;2024-02-15T00:20:50;11.84;118.99
75296;DHT22;64623;44.738;37.804;2024-02-15T00:21:54;11.83;118.99
75296;DHT22;64623;44.738;37.804;2024-02-15T00:22:59;11.79;118.99
75296;DHT22;64623;44.738;37.804;2024-02-15T00:24:03;11.76;118.99
75296;DHT22;64623;44.738;37.804;2024-02-15T00:25:06;11.75;118.99
75296;DHT22;64623;44.738;37.804;2024-02-15T00:26:11;11.74;118.99
75296;DHT22;64623;44.738;37.804;2024-02-15T00:27:15;11.72;118.99
75296;DHT22;64623;44.738;37.804;2024-02-15T00:28:18;11.71;118.99
75296;DHT22;64623;44.738;37.804;2024-02-15T00:29:23;11.70;118.99
75296;DHT22;64623;44.738;37.804;2024-02-15T00:30:26;11.69;118.99
75296;DHT22;64623;44.738;37.804;2024-02-15T00:31:30;11.66;118.99
75296;DHT22;64623;44.738;37.804;2024-02-15T00:32:34;11.63;118.99
75296;DHT22;64623;44.738;37.804;2024-02-15T00:33:37;11.63;118.99
75296;DHT22;64623;44.738;37.804;2024-02-15T00:34:40;11.64;118.99
75296;DHT22;64623;44.738;37.804;2024-02-15T00:35:44;11.62;118.99
75296;DHT22;64623;44.738;37.804;2024-02-15T00:36:47;11.59;118.99
75296;DHT22;64623;44.738;37.804;2024-02-15T00:37:51;11.60;118.99
75296;DHT22;64623;44.738;37.804;2024-02-15T00:38:54;11.59;118.99
75296;DHT22;64623;44.738;37.804;2024-02-15T00:39:58;11.56;118.99
75296;DHT22;64623;44.738;37.804;2024-02-15T00:41:01;11.55;118.99
75296;DHT22;64623;44.738;37.804;2024-02-15T00:42:05;11.56;118.99
75296;DHT22;64623;44.738;37.804;2024-02-15T00:43:12;11.56;118.99
75296;DHT22;64623;44.738;37.804;2024-02-15T00:44:15;11.55;118.99
75296;DHT22;64623;44.738;37.804;2024-02-15T00:45:18;11.53;118.99
75296;DHT22;64623;44.738;37.804;2024-02-15T00:46:21;11.51;118.99
75296;DHT22;64623;44.738;37.804;2024-02-15T00:47:25;11.47;118.99
75296;DHT22;64623;44.738;37.804;2024-02-15T00:48:28;11.46;118.99
75296;DHT22;64623;44.738;37.804;2024-02-15T00:49:37;11.46;118.99
75296;DHT22;64623;44.738;37.804;2024-02-15T00:50:41;11.44;118.99
75296;DHT22;64623;44.738;37.804;2024-02-15T00:51:44;11.39;118.99
75296;DHT22;64623;44.738;37.804;2024-02-15T00:52:47;11.38;118.99
75296;DHT22;64623;44.738;37.804;2024-02-15T00:53:50;11.34;118.99
75296;DHT22;64623;44.738;37.804;2024-02-15T00:54:53;11.30;118.99
75296;DHT22;64623;44.738;37.804;2024-02-15T00:55:57;11.30;118.99
75296;DHT22;64623;44.738;37.804;2024-02-15T00:57:00;11.27;118.99
75296;DHT22;64623;44.738;37.804;2024-02-15T00:58:03;11.27;118.99
75296;DHT22;64623;44.738;37.804;2024-02-15T00:59:07;11.24;118.99
75296;DHT22;64623;44.738;37.804;2024-02-15T01:00:11;11.22;118.99
75296;DHT22;64623;44.738;37.804;2024-02-15T01:01:16;11.19;118.99
75296;DHT22;64623;44.738;37.804;2024-02-15T01:02:19;11.15;118.99
75296;DHT22;64623;44.738;37.804;2024-02-15T01:03:26;11.17;118.99
75296;DHT22;64623;44.738;37.804;2024-02-15T01:04:39;11.16;118.99
75296;DHT22;64623;44.738;37.804;2024-02-15T01:05:43;11.16;118.99
75296;DHT22;64623;44.738;37.804;2024-02-15T01:06:46;11.14;118.99
75296;DHT22;64623;44.738;37.804;2024-02-15T01:07:50;11.13;118.99
75296;DHT22;64623;44.738;37.804;2024-02-15T01:08:53;11.12;118.99
75296;DHT22;64623;44.738;37.804;2024-02-15T01:09:56;11.12;118.99
75296;DHT22;64623;44.738;37.804;2024-02-15T01:10:59;11.12;118.99
75296;DHT22;64623;44.738;37.804;2024-02-15T01:12:03;11.11;118.99
75296;DHT22;64623;44.738;37.804;2024-02-15T01:13:06;11.10;118.99
75296;DHT22;64623;44.738;37.804;2024-02-15T01:14:11;11.09;118.99
75296;DHT22;64623;44.738;37.804;2024-02-15T01:15:15;11.10;118.99
75296;DHT22;64623;44.738;37.804;2024-02-15T01:16:23;11.08;118.99
75296;DHT22;64623;44.738;37.804;2024-02-15T01:17:27;11.08;118.99
75296;DHT22;64623;44.738;37.804;2024-02-15T01:18:31;11.08;118.99
75296;DHT22;64623;44.738;37.804;2024-02-15T01:19:34;11.05;118.99
75296;DHT22;64623;44.738;37.804;2024-02-15T01:20:38;11.07;118.99
75296;DHT22;64623;44.738;37.804;2024-02-15T01:21:41;11.08;118.99
75296;DHT22;64623;44.738;37.804;2024-02-15T01:22:46;11.05;118.99
75296;DHT22;64623;44.738;37.804;2024-02-15T01:23:49;11.07;118.99
75296;DHT22;64623;44.738;37.804;2024-02-15T01:24:53;11.04;118.99
75296;DHT22;64623;44.738;37.804;2024-02-15T01:25:57;11.02;118.99
75296;DHT22;64623;44.738;37.804;2024-02-15T01:27:00;11.02;118.99
75296;DHT22;64623;44.738;37.804;2024-02-15T01:28:04;11.01;118.99
75296;DHT22;64623;44.738;37.804;2024-02-15T01:29:08;10.97;118.99
75296;DHT22;64623;44.738;37.804;2024-02-15T01:30:15;10.95;118.99
75296;DHT22;64623;44.738;37.804;2024-02-15T01:31:19;10.95;118.99
75296;DHT22;64623;44.738;37.804;2024-02-15T01:32:23;10.95;118.99
75296;DHT22;64623;44.738;37.804;2024-02-15T01:33:26;10.95;118.99
75296;DHT22;64623;44.738;37.804;2024-02-15T01:34:30;10.95;118.99
75296;DHT22;64623;44.738;37.804;2024-02-15T01:35:33;10.92;118.99
75296;DHT22;64623;44.738;37.804;2024-02-15T01:36:36;10.92;118.99
75296;DHT22;64623;44.738;37.804;2024-02-15T01:37:39;10.89;118.99
75296;DHT22;64623;44.738;37.804;2024-02-15T01:38:44;10.88;118.99
75296;DHT22;64623;44.738;37.804;2024-02-15T01:39:48;10.90;118.99
75296;DHT22;64623;44.738;37.804;2024-02-15T01:40:52;10.92;118.99
75296;DHT22;64623;44.738;37.804;2024-02-15T01:41:55;10.92;118.99
75296;DHT22;64623;44.738;37.804;2024-02-15T01:42:59;10.89;118.99
75296;DHT22;64623;44.738;37.804;2024-02-15T01:44:04;10.88;118.99
75296;DHT22;64623;44.738;37.804;2024-02-15T01:45:33;10.84;118.99
75296;DHT22;64623;44.738;37.804;2024-02-15T01:46:37;10.84;118.99
75296;DHT22;64623;44.738;37.804;2024-02-15T01:47:40;10.84;118.99
75296;DHT22;64623;44.738;37.804;2024-02-15T01:48:45;10.82;118.99
75296;DHT22;64623;44.738;37.804;2024-02-15T01:49:48;10.81;118.99
75296;DHT22;64623;44.738;37.804;2024-02-15T01:50:52;10.81;118.99
75296;DHT22;64623;44.738;37.804;2024-02-15T01:51:57;10.78;118.99
75296;DHT22;64623;44.738;37.804;2024-02-15T01:53:05;10.78;118.99
75296;DHT22;64623;44.738;37.804;2024-02-15T01:54:12;10.75;118.99
75296;DHT22;64623;44.738;37.804;2024-02-15T01:55:17;10.77;118.99
75296;DHT22;64623;44.738;37.804;2024-02-15T01:56:23;10.74;118.99
75296;DHT22;64623;44.738;37.804;2024-02-15T01:57:28;10.77;118.99
75296;DHT22;64623;44.738;37.804;2024-02-15T01:58:33;10.77;118.99
75296;DHT22;64623;44.738;37.804;2024-02-15T01:59:37;10.77;118.99
75296;DHT22;64623;44.738;37.804;2024-02-15T02:00:40;10.74;118.99
75296;DHT22;64623;44.738;37.804;2024-02-15T02:01:44;10.79;118.99
75296;DHT22;64623;44.738;37.804;2024-02-15T02:02:48;10.77;118.99
75296;DHT22;64623;44.738;37.804;2024-02-15T02:03:51;10.74;118.99
75296;DHT22;64623;44.738;37.804;2024-02-15T02:04:55;10.73;118.99
75296;DHT22;64623;44.738;37.804;2024-02-15T02:05:58;10.72;118.99
75296;DHT22;64623;44.738;37.804;2024-02-15T02:07:03;10.74;118.99
75296;DHT22;64623;44.738;37.804;2024-02-15T02:08:07;10.73;118.99
75296;DHT22;64623;44.738;37.804;2024-02-15T02:09:13;10.72;118.99
75296;DHT22;64623;44.738;37.804;2024-02-15T02:10:17;10.70;118.99
75296;DHT22;64623;44.738;37.804;2024-02-15T02:11:22;10.69;118.99
75296;DHT22;64623;44.738;37.804;2024-02-15T02:12:25;10.68;118.99
75296;DHT22;64623;44.738;37.804;2024-02-15T02:13:30;10.65;118.99
75296;DHT22;64623;44.738;37.804;2024-02-15T02:14:34;10.63;118.99
75296;DHT22;64623;44.738;37.804;2024-02-15T02:15:37;10.62;118.99
75296;DHT22;64623;44.738;37.804;2024-02-15T02:16:40;10.62;118.99
75296;DHT22;64623;44.738;37.804;2024-02-15T02:22:00;10.58;118.99
75296;DHT22;64623;44.738;37.804;2024-02-15T02:23:13;10.53;118.99
75296;DHT22;64623;44.738;37.804;2024-02-15T02:24:25;10.55;118.99
75296;DHT22;64623;44.738;37.804;2024-02-15T02:25:29;10.52;118.99
75296;DHT22;64623;44.738;37.804;2024-02-15T02:26:33;10.46;118.99
75296;DHT22;64623;44.738;37.804;2024-02-15T02:27:37;10.50;118.99
75296;DHT22;64623;44.738;37.804;2024-02-15T02:28:40;10.49;118.99
75296;DHT22;64623;44.738;37.804;2024-02-15T02:29:43;10.45;118.99
75296;DHT22;64623;44.738;37.804;2024-02-15T02:30:50;10.40;118.99
75296;DHT22;64623;44.738;37.804;2024-02-15T02:31:54;10.38;118.99
75296;DHT22;64623;44.738;37.804;2024-02-15T02:32:57;10.35;118.99
75296;DHT22;64623;44.738;37.804;2024-02-15T02:34:02;10.30;118.99
75296;DHT22;64623;44.738;37.804;2024-02-15T02:35:06;10.30;118.99
75296;DHT22;64623;44.738;37.804;2024-02-15T02:36:10;10.31;118.99
75296;DHT22;64623;44.738;37.804;2024-02-15T02:37:14;10.30;118.99
75296;DHT22;64623;44.738;37.804;2024-02-15T02:38:18;10.30;118.99
75296;DHT22;64623;44.738;37.804;2024-02-15T02:39:21;10.27;118.99
75296;DHT22;64623;44.738;37.804;2024-02-15T02:40:26;10.26;118.99
75296;DHT22;64623;44.738;37.804;2024-02-15T02:41:29;10.25;118.99
75296;DHT22;64623;44.738;37.804;2024-02-15T02:42:32;10.23;118.99
75296;DHT22;64623;44.738;37.804;2024-02-15T02:43:35;10.19;118.99
75296;DHT22;64623;44.738;37.804;2024-02-15T02:44:38;10.15;118.99
75296;DHT22;64623;44.738;37.804;2024-02-15T02:45:42;10.12;118.99
75296;DHT22;64623;44.738;37.804;2024-02-15T02:46:46;10.11;118.99
75296;DHT22;64623;44.738;37.804;2024-02-15T02:47:49;10.11;118.99
75296;DHT22;64623;44.738;37.804;2024-02-15T02:48:54;10.09;118.99
75296;DHT22;64623;44.738;37.804;2024-02-15T02:49:57;10.09;118.99
75296;DHT22;64623;44.738;37.804;2024-02-15T02:51:01;10.07;118.99
75296;DHT22;64623;44.738;37.804;2024-02-15T02:52:05;10.07;118.99
75296;DHT22;64623;44.738;37.804;2024-02-15T02:53:09;10.07;118.99
75296;DHT22;64623;44.738;37.804;2024-02-15T02:54:14;10.05;118.99
75296;DHT22;64623;44.738;37.804;2024-02-15T02:55:18;10.05;118.99
75296;DHT22;64623;44.738;37.804;2024-02-15T02:56:21;10.01;118.99
75296;DHT22;64623;44.738;37.804;2024-02-15T02:57:25;10.00;118.99
75296;DHT22;64623;44.738;37.804;2024-02-15T02:58:28;9.99;118.99
75296;DHT22;64623;44.738;37.804;2024-02-15T02:59:33;9.99;118.99
75296;DHT22;64623;44.738;37.804;2024-02-15T03:00:37;10.00;118.99
75296;DHT22;64623;44.738;37.804;2024-02-15T03:01:42;9.99;118.99
75296;DHT22;64623;44.738;37.804;2024-02-15T03:02:46;9.98;118.99
75296;DHT22;64623;44.738;37.804;2024-02-15T03:03:49;9.95;118.99
75296;DHT22;64623;44.738;37.804;2024-02-15T03:04:53;9.92;118.99
75296;DHT22;64623;44.738;37.804;2024-02-15T03:05:56;9.91;118.99
75296;DHT22;64623;44.738;37.804;2024-02-15T03:06:59;9.90;118.99
75296;DHT22;64623;44.738;37.804;2024-02-15T03:08:03;9.90;118.99
75296;DHT22;64623;44.738;37.804;2024-02-15T03:09:06;9.85;118.99
75296;DHT22;64623;44.738;37.804;2024-02-15T03:10:12;9.84;118.99
75296;DHT22;64623;44.738;37.804;2024-02-15T03:11:16;9.84;118.99
75296;DHT22;64623;44.738;37.804;2024-02-15T03:12:20;9.83;118.99
75296;DHT22;64623;44.738;37.804;2024-02-15T03:13:24;9.81;118.99
75296;DHT22;64623;44.738;37.804;2024-02-15T03:14:27;9.78;118.99
75296;DHT22;64623;44.738;37.804;2024-02-15T03:15:33;9.79;118.99
75296;DHT22;64623;44.738;37.804;2024-02-15T03:16:37;9.80;118.99
75296;DHT22;64623;44.738;37.804;2024-02-15T03:17:42;9.78;118.99
75296;DHT22;64623;44.738;37.804;2024-02-15T03:18:46;9.77;118.99
75296;DHT22;64623;44.738;37.804;2024-02-15T03:19:49;9.75;118.99
75296;DHT22;64623;44.738;37.804;2024-02-15T03:20:52;9.75;118.99
75296;DHT22;64623;44.738;37.804;2024-02-15T03:21:56;9.72;118.99
75296;DHT22;64623;44.738;37.804;2024-02-15T03:23:00;9.72;118.99
75296;DHT22;64623;44.738;37.804;2024-02-15T03:24:05;9.72;118.99
75296;DHT22;64623;44.738;37.804;2024-02-15T03:25:08;9.68;118.99
75296;DHT22;64623;44.738;37.804;2024-02-15T03:26:11;9.69;118.99
75296;DHT22;64623;44.738;37.804;2024-02-15T03:27:15;9.69;118.99
75296;DHT22;64623;44.738;37.804;2024-02-15T03:28:18;9.71;118.99
75296;DHT22;64623;44.738;37.804;2024-02-15T03:29:24;9.70;118.99
75296;DHT22;64623;44.738;37.804;2024-02-15T03:30:32;9.71;118.99
75296;DHT22;64623;44.738;37.804;2024-02-15T03:31:36;9.70;118.99
75296;DHT22;64623;44.738;37.804;2024-02-15T03:32:39;9.71;118.99
75296;DHT22;64623;44.738;37.804;2024-02-15T03:33:43;9.70;118.99
75296;DHT22;64623;44.738;37.804;2024-02-15T03:34:47;9.68;118.99
75296;DHT22;64623;44.738;37.804;2024-02-15T03:35:50;9.66;118.99
75296;DHT22;64623;44.738;37.804;2024-02-15T03:36:54;9.64;118.99
75296;DHT22;64623;44.738;37.804;2024-02-15T03:37:57;9.63;118.99
75296;DHT22;64623;44.738;37.804;2024-02-15T03:39:01;9.63;118.99
75296;DHT22;64623;44.738;37.804;2024-02-15T03:40:05;9.65;118.99
75296;DHT22;64623;44.738;37.804;2024-02-15T03:41:09;9.62;118.99
75296;DHT22;64623;44.738;37.804;2024-02-15T03:42:12;9.62;118.99
75296;DHT22;64623;44.738;37.804;2024-02-15T03:43:15;9.61;118.99
75296;DHT22;64623;44.738;37.804;2024-02-15T03:44:19;9.60;118.99
75296;DHT22;64623;44.738;37.804;2024-02-15T03:45:22;9.59;118.99
75296;DHT22;64623;44.738;37.804;2024-02-15T03:46:28;9.56;118.99
75296;DHT22;64623;44.738;37.804;2024-02-15T03:47:34;9.55;118.99
75296;DHT22;64623;44.738;37.804;2024-02-15T03:48:42;9.56;118.99
75296;DHT22;64623;44.738;37.804;2024-02-15T03:49:49;9.55;118.99
75296;DHT22;64623;44.738;37.804;2024-02-15T03:50:52;9.53;118.99
75296;DHT22;64623;44.738;37.804;2024-02-15T03:51:55;9.59;118.99
75296;DHT22;64623;44.738;37.804;2024-02-15T03:53:02;9.56;118.99
75296;DHT22;64623;44.738;37.804;2024-02-15T03:54:06;9.56;118.99
75296;DHT22;64623;44.738;37.804;2024-02-15T03:55:09;9.55;118.99
75296;DHT22;64623;44.738;37.804;2024-02-15T03:56:12;9.56;118.99
75296;DHT22;64623;44.738;37.804;2024-02-15T03:57:15;9.56;118.99
75296;DHT22;64623;44.738;37.804;2024-02-15T03:58:20;9.53;118.99
75296;DHT22;64623;44.738;37.804;2024-02-15T03:59:23;9.52;118.99
75296;DHT22;64623;44.738;37.804;2024-02-15T04:00:29;9.52;118.99
75296;DHT22;64623;44.738;37.804;2024-02-15T04:01:33;9.47;118.99
75296;DHT22;64623;44.738;37.804;2024-02-15T04:02:37;9.44;118.99
75296;DHT22;64623;44.738;37.804;2024-02-15T04:03:43;9.46;118.99
75296;DHT22;64623;44.738;37.804;2024-02-15T04:04:46;9.44;118.99
75296;DHT22;64623;44.738;37.804;2024-02-15T04:05:55;9.41;118.99
75296;DHT22;64623;44.738;37.804;2024-02-15T04:06:58;9.41;118.99
75296;DHT22;64623;44.738;37.804;2024-02-15T04:08:02;9.41;118.99
75296;DHT22;64623;44.738;37.804;2024-02-15T04:09:05;9.40;118.99
75296;DHT22;64623;44.738;37.804;2024-02-15T04:10:10;9.40;118.99
75296;DHT22;64623;44.738;37.804;2024-02-15T04:11:25;9.39;118.99
75296;DHT22;64623;44.738;37.804;2024-02-15T04:12:28;9.39;118.99
75296;DHT22;64623;44.738;37.804;2024-02-15T04:13:31;9.39;118.99
75296;DHT22;64623;44.738;37.804;2024-02-15T04:14:35;9.36;118.99
75296;DHT22;64623;44.738;37.804;2024-02-15T04:15:38;9.35;118.99
75296;DHT22;64623;44.738;37.804;2024-02-15T04:16:41;9.35;118.99
75296;DHT22;64623;44.738;37.804;2024-02-15T04:17:45;9.33;118.99
75296;DHT22;64623;44.738;37.804;2024-02-15T04:18:48;9.32;118.99
75296;DHT22;64623;44.738;37.804;2024-02-15T04:19:51;9.32;118.99
75296;DHT22;64623;44.738;37.804;2024-02-15T04:20:56;9.34;118.99
75296;DHT22;64623;44.738;37.804;2024-02-15T04:22:00;9.34;118.99
75296;DHT22;64623;44.738;37.804;2024-02-15T04:23:03;9.32;118.99
75296;DHT22;64623;44.738;37.804;2024-02-15T04:24:08;9.32;118.99
75296;DHT22;64623;44.738;37.804;2024-02-15T04:25:11;9.32;118.99
75296;DHT22;64623;44.738;37.804;2024-02-15T04:26:20;9.31;118.99
75296;DHT22;64623;44.738;37.804;2024-02-15T04:27:23;9.32;118.99
75296;DHT22;64623;44.738;37.804;2024-02-15T04:28:27;9.31;118.99
75296;DHT22;64623;44.738;37.804;2024-02-15T04:29:30;9.30;118.99
75296;DHT22;64623;44.738;37.804;2024-02-15T04:30:33;9.30;118.99
75296;DHT22;64623;44.738;37.804;2024-02-15T04:31:41;9.31;118.99
75296;DHT22;64623;44.738;37.804;2024-02-15T04:32:45;9.27;118.99
75296;DHT22;64623;44.738;37.804;2024-02-15T04:33:49;9.29;118.99
75296;DHT22;64623;44.738;37.804;2024-02-15T04:34:53;9.30;118.99
75296;DHT22;64623;44.738;37.804;2024-02-15T04:35:56;9.31;118.99
75296;DHT22;64623;44.738;37.804;2024-02-15T04:37:03;9.30;118.99
75296;DHT22;64623;44.738;37.804;2024-02-15T04:38:09;9.26;118.99
75296;DHT22;64623;44.738;37.804;2024-02-15T04:39:13;9.31;118.99
75296;DHT22;64623;44.738;37.804;2024-02-15T04:40:26;9.30;118.99
75296;DHT22;64623;44.738;37.804;2024-02-15T04:41:29;9.27;118.99
75296;DHT22;64623;44.738;37.804;2024-02-15T04:42:33;9.29;118.99
75296;DHT22;64623;44.738;37.804;2024-02-15T04:43:37;9.29;118.99
75296;DHT22;64623;44.738;37.804;2024-02-15T04:44:43;9.27;118.99
75296;DHT22;64623;44.738;37.804;2024-02-15T04:45:47;9.24;118.99
75296;DHT22;64623;44.738;37.804;2024-02-15T04:46:50;9.29;118.99
75296;DHT22;64623;44.738;37.804;2024-02-15T04:47:53;9.30;118.99
75296;DHT22;64623;44.738;37.804;2024-02-15T04:48:56;9.27;118.99
75296;DHT22;64623;44.738;37.804;2024-02-15T04:50:06;9.27;118.99
75296;DHT22;64623;44.738;37.804;2024-02-15T04:51:10;9.27;118.99
75296;DHT22;64623;44.738;37.804;2024-02-15T04:52:14;9.26;118.99
75296;DHT22;64623;44.738;37.804;2024-02-15T04:53:17;9.27;118.99
75296;DHT22;64623;44.738;37.804;2024-02-15T04:54:21;9.29;118.99
75296;DHT22;64623;44.738;37.804;2024-02-15T04:55:24;9.35;118.99
75296;DHT22;64623;44.738;37.804;2024-02-15T04:56:29;9.35;118.99
75296;DHT22;64623;44.738;37.804;2024-02-15T04:57:34;9.33;118.99
75296;DHT22;64623;44.738;37.804;2024-02-15T04:58:40;9.31;118.99
75296;DHT22;64623;44.738;37.804;2024-02-15T04:59:50;9.29;118.99
75296;DHT22;64623;44.738;37.804;2024-02-15T05:00:53;9.24;118.99
75296;DHT22;64623;44.738;37.804;2024-02-15T05:02:01;9.21;118.99
75296;DHT22;64623;44.738;37.804;2024-02-15T05:03:04;9.23;118.99
75296;DHT22;64623;44.738;37.804;2024-02-15T05:04:11;9.23;118.99
75296;DHT22;64623;44.738;37.804;2024-02-15T05:05:14;9.21;118.99
75296;DHT22;64623;44.738;37.804;2024-02-15T05:06:17;9.27;118.99
75296;DHT22;64623;44.738;37.804;2024-02-15T05:07:22;9.29;118.99
75296;DHT22;64623;44.738;37.804;2024-02-15T05:08:26;9.27;118.99
75296;DHT22;64623;44.738;37.804;2024-02-15T05:09:29;9.29;118.99
75296;DHT22;64623;44.738;37.804;2024-02-15T05:10:34;9.30;118.99
75296;DHT22;64623;44.738;37.804;2024-02-15T05:11:37;9.29;118.99
75296;DHT22;64623;44.738;37.804;2024-02-15T05:12:51;9.33;118.99
75296;DHT22;64623;44.738;37.804;2024-02-15T05:13:56;9.32;118.99
75296;DHT22;64623;44.738;37.804;2024-02-15T05:15:00;9.33;118.99
75296;DHT22;64623;44.738;37.804;2024-02-15T05:16:05;9.34;118.99
75296;DHT22;64623;44.738;37.804;2024-02-15T05:17:08;9.36;118.99
75296;DHT22;64623;44.738;37.804;2024-02-15T05:18:14;9.36;118.99
75296;DHT22;64623;44.738;37.804;2024-02-15T05:19:17;9.36;118.99
75296;DHT22;64623;44.738;37.804;2024-02-15T05:20:21;9.41;118.99
75296;DHT22;64623;44.738;37.804;2024-02-15T05:21:24;9.46;118.99
75296;DHT22;64623;44.738;37.804;2024-02-15T05:22:28;9.47;118.99
75296;DHT22;64623;44.738;37.804;2024-02-15T05:23:31;9.49;118.99
75296;DHT22;64623;44.738;37.804;2024-02-15T05:24:35;9.46;118.99
75296;DHT22;64623;44.738;37.804;2024-02-15T05:25:38;9.45;118.99
75296;DHT22;64623;44.738;37.804;2024-02-15T05:26:44;9.44;118.99
75296;DHT22;64623;44.738;37.804;2024-02-15T05:27:54;9.45;118.99
75296;DHT22;64623;44.738;37.804;2024-02-15T05:28:58;9.47;118.99
75296;DHT22;64623;44.738;37.804;2024-02-15T05:30:02;9.46;118.99
75296;DHT22;64623;44.738;37.804;2024-02-15T05:31:17;9.46;118.99
75296;DHT22;64623;44.738;37.804;2024-02-15T05:32:25;9.47;118.99
75296;DHT22;64623;44.738;37.804;2024-02-15T05:33:29;9.45;118.99
75296;DHT22;64623;44.738;37.804;2024-02-15T05:34:35;9.44;118.99
75296;DHT22;64623;44.738;37.804;2024-02-15T05:35:42;9.46;118.99
75296;DHT22;64623;44.738;37.804;2024-02-15T05:36:49;9.47;118.99
75296;DHT22;64623;44.738;37.804;2024-02-15T05:37:52;9.48;118.99
75296;DHT22;64623;44.738;37.804;2024-02-15T05:38:55;9.49;118.99
75296;DHT22;64623;44.738;37.804;2024-02-15T05:40:00;9.48;118.99
75296;DHT22;64623;44.738;37.804;2024-02-15T05:41:03;9.49;118.99
75296;DHT22;64623;44.738;37.804;2024-02-15T05:42:06;9.50;118.99
75296;DHT22;64623;44.738;37.804;2024-02-15T05:43:10;9.56;118.99
75296;DHT22;64623;44.738;37.804;2024-02-15T05:44:14;9.57;118.99
75296;DHT22;64623;44.738;37.804;2024-02-15T05:46:27;9.50;118.99
75296;DHT22;64623;44.738;37.804;2024-02-15T05:47:33;9.46;118.99
75296;DHT22;64623;44.738;37.804;2024-02-15T05:48:37;9.44;118.99
75296;DHT22;64623;44.738;37.804;2024-02-15T05:49:42;9.46;118.99
75296;DHT22;64623;44.738;37.804;2024-02-15T05:50:46;9.44;118.99
75296;DHT22;64623;44.738;37.804;2024-02-15T05:51:49;9.44;118.99
75296;DHT22;64623;44.738;37.804;2024-02-15T05:52:53;9.42;118.99
75296;DHT22;64623;44.738;37.804;2024-02-15T05:53:57;9.47;118.99
75296;DHT22;64623;44.738;37.804;2024-02-15T05:55:07;9.49;118.99
75296;DHT22;64623;44.738;37.804;2024-02-15T05:56:11;9.50;118.99
75296;DHT22;64623;44.738;37.804;2024-02-15T05:57:15;9.49;118.99
75296;DHT22;64623;44.738;37.804;2024-02-15T05:58:20;9.51;118.99
75296;DHT22;64623;44.738;37.804;2024-02-15T05:59:23;9.53;118.99
75296;DHT22;64623;44.738;37.804;2024-02-15T06:00:27;9.59;118.99
75296;DHT22;64623;44.738;37.804;2024-02-15T06:01:33;9.59;118.99
75296;DHT22;64623;44.738;37.804;2024-02-15T06:02:36;9.56;118.99
75296;DHT22;64623;44.738;37.804;2024-02-15T06:03:39;9.53;118.99
75296;DHT22;64623;44.738;37.804;2024-02-15T06:04:44;9.50;118.99
75296;DHT22;64623;44.738;37.804;2024-02-15T06:05:48;9.51;118.99
75296;DHT22;64623;44.738;37.804;2024-02-15T06:06:51;9.50;118.99
75296;DHT22;64623;44.738;37.804;2024-02-15T06:07:56;9.49;118.99
75296;DHT22;64623;44.738;37.804;2024-02-15T06:09:00;9.48;118.99
75296;DHT22;64623;44.738;37.804;2024-02-15T06:10:06;9.51;118.99
75296;DHT22;64623;44.738;37.804;2024-02-15T06:11:10;9.52;118.99
75296;DHT22;64623;44.738;37.804;2024-02-15T06:12:14;9.50;118.99
75296;DHT22;64623;44.738;37.804;2024-02-15T06:13:18;9.52;118.99
75296;DHT22;64623;44.738;37.804;2024-02-15T06:14:21;9.57;118.99
75296;DHT22;64623;44.738;37.804;2024-02-15T06:15:25;9.57;118.99
75296;DHT22;64623;44.738;37.804;2024-02-15T06:16:29;9.60;118.99
75296;DHT22;64623;44.738;37.804;2024-02-15T06:17:32;9.61;118.99
75296;DHT22;64623;44.738;37.804;2024-02-15T06:18:35;9.59;118.99
75296;DHT22;64623;44.738;37.804;2024-02-15T06:19:40;9.62;118.99
75296;DHT22;64623;44.738;37.804;2024-02-15T06:20:43;9.64;118.99
75296;DHT22;64623;44.738;37.804;2024-02-15T06:21:49;9.63;118.99
75296;DHT22;64623;44.738;37.804;2024-02-15T06:22:52;9.65;118.99
75296;DHT22;64623;44.738;37.804;2024-02-15T06:23:55;9.65;118.99
75296;DHT22;64623;44.738;37.804;2024-02-15T06:24:58;9.64;118.99
75296;DHT22;64623;44.738;37.804;2024-02-15T06:26:02;9.66;118.99
75296;DHT22;64623;44.738;37.804;2024-02-15T06:27:05;9.68;118.99
75296;DHT22;64623;44.738;37.804;2024-02-15T06:28:09;9.70;118.99
75296;DHT22;64623;44.738;37.804;2024-02-15T06:29:30;9.77;118.99
75296;DHT22;64623;44.738;37.804;2024-02-15T06:30:52;9.78;118.99
75296;DHT22;64623;44.738;37.804;2024-02-15T06:32:14;9.75;118.99
75296;DHT22;64623;44.738;37.804;2024-02-15T06:33:36;9.76;118.99
75296;DHT22;64623;44.738;37.804;2024-02-15T06:34:58;9.78;118.99
75296;DHT22;64623;44.738;37.804;2024-02-15T06:36:19;9.81;118.99
75296;DHT22;64623;44.738;37.804;2024-02-15T06:37:41;9.80;118.99
75296;DHT22;64623;44.738;37.804;2024-02-15T06:39:03;9.81;118.99
75296;DHT22;64623;44.738;37.804;2024-02-15T06:40:25;9.82;118.99
75296;DHT22;64623;44.738;37.804;2024-02-15T06:41:28;9.83;118.99
75296;DHT22;64623;44.738;37.804;2024-02-15T06:42:32;9.85;118.99
75296;DHT22;64623;44.738;37.804;2024-02-15T06:43:36;9.79;118.99
75296;DHT22;64623;44.738;37.804;2024-02-15T06:44:40;9.80;118.99
75296;DHT22;64623;44.738;37.804;2024-02-15T06:45:43;9.79;118.99